sensor_id;sensor_type;location;lat;lon;timestamp;pressure;altitude;pressure_sealevel;temperature;humidity
30516;BME280;17297;54.022;10.760;2023-07-13T00:01:44;101160.59;;;21.14;57.84
30516;BME280;17297;54.022;10.760;2023-07-13T00:04:11;101158.13;;;21.13;58.02
30516;BME280;17297;54.022;10.760;2023-07-13T00:06:37;101157.31;;;21.12;58.38
30516;BME280;17297;54.022;10.760;2023-07-13T00:09:02;101152.66;;;21.13;58.09
30516;BME280;17297;54.022;10.760;2023-07-13T00:11:28;101150.16;;;21.11;57.97
30516;BME280;17297;54.022;10.760;2023-07-13T00:13:53;101152.06;;;21.11;58.33
30516;BME280;17297;54.022;10.760;2023-07-13T00:16:19;101152.06;;;21.11;58.37
30516;BME280;17297;54.022;10.760;2023-07-13T00:18:46;101140.53;;;21.09;58.71
30516;BME280;17297;54.022;10.760;2023-07-13T00:21:12;101146.28;;;21.07;58.58
30516;BME280;17297;54.022;10.760;2023-07-13T00:23:40;101150.66;;;21.08;58.80
30516;BME280;17297;54.022;10.760;2023-07-13T00:26:08;101151.75;;;21.07;58.93
30516;BME280;17297;54.022;10.760;2023-07-13T00:28:34;101150.09;;;21.06;58.83
30516;BME280;17297;54.022;10.760;2023-07-13T00:31:00;101150.09;;;21.06;58.63
30516;BME280;17297;54.022;10.760;2023-07-13T00:33:29;101150.34;;;21.05;58.99
30516;BME280;17297;54.022;10.760;2023-07-13T00:35:56;101156.09;;;21.03;58.62
30516;BME280;17297;54.022;10.760;2023-07-13T00:38:22;101164.28;;;21.03;58.97
30516;BME280;17297;54.022;10.760;2023-07-13T00:40:48;101153.59;;;21.02;59.13
30516;BME280;17297;54.022;10.760;2023-07-13T00:43:16;101156.59;;;21.00;58.92
30516;BME280;17297;54.022;10.760;2023-07-13T00:48:07;101153.50;;;20.96;59.25
30516;BME280;17297;54.022;10.760;2023-07-13T00:50:33;101152.94;;;20.94;59.22
30516;BME280;17297;54.022;10.760;2023-07-13T00:52:58;101155.91;;;20.93;59.08
30516;BME280;17297;54.022;10.760;2023-07-13T00:55:23;101148.22;;;20.90;59.18
30516;BME280;17297;54.022;10.760;2023-07-13T00:57:49;101156.69;;;20.88;59.28
30516;BME280;17297;54.022;10.760;2023-07-13T01:00:14;101163.25;;;20.87;59.51
30516;BME280;17297;54.022;10.760;2023-07-13T01:02:44;101151.72;;;20.85;59.54
30516;BME280;17297;54.022;10.760;2023-07-13T01:05:13;101151.13;;;20.83;59.57
30516;BME280;17297;54.022;10.760;2023-07-13T01:07:40;101157.69;;;20.82;59.59
30516;BME280;17297;54.022;10.760;2023-07-13T01:10:07;101154.38;;;20.80;59.50
30516;BME280;17297;54.022;10.760;2023-07-13T01:12:32;101153.81;;;20.78;59.63
30516;BME280;17297;54.022;10.760;2023-07-13T01:14:58;101160.34;;;20.77;59.82
30516;BME280;17297;54.022;10.760;2023-07-13T01:17:26;101164.16;;;20.76;59.76
30516;BME280;17297;54.022;10.760;2023-07-13T01:19:52;101156.47;;;20.73;59.48
30516;BME280;17297;54.022;10.760;2023-07-13T01:22:19;101163.03;;;20.72;59.85
30516;BME280;17297;54.022;10.760;2023-07-13T01:24:46;101160.78;;;20.69;59.73
30516;BME280;17297;54.022;10.760;2023-07-13T01:27:15;101162.94;;;20.67;59.80
30516;BME280;17297;54.022;10.760;2023-07-13T01:29:43;101158.78;;;20.64;59.91
30516;BME280;17297;54.022;10.760;2023-07-13T01:32:12;101158.19;;;20.62;59.90
30516;BME280;17297;54.022;10.760;2023-07-13T01:34:38;101150.25;;;20.61;60.02
30516;BME280;17297;54.022;10.760;2023-07-13T01:37:09;101158.72;;;20.59;59.89
30516;BME280;17297;54.022;10.760;2023-07-13T01:39:34;101154.59;;;20.57;59.88
30516;BME280;17297;54.022;10.760;2023-07-13T01:42:00;101157.56;;;20.55;60.03
30516;BME280;17297;54.022;10.760;2023-07-13T01:44:25;101148.78;;;20.53;60.08
30516;BME280;17297;54.022;10.760;2023-07-13T01:46:51;101145.44;;;20.51;59.77
30516;BME280;17297;54.022;10.760;2023-07-13T01:49:17;101160.19;;;20.50;60.18
30516;BME280;17297;54.022;10.760;2023-07-13T01:51:42;101166.72;;;20.49;59.74
30516;BME280;17297;54.022;10.760;2023-07-13T01:54:07;101164.47;;;20.46;59.92
30516;BME280;17297;54.022;10.760;2023-07-13T01:56:32;101167.47;;;20.44;59.84
30516;BME280;17297;54.022;10.760;2023-07-13T01:58:58;101168.78;;;20.42;59.71
30516;BME280;17297;54.022;10.760;2023-07-13T02:01:23;101159.19;;;20.39;59.91
30516;BME280;17297;54.022;10.760;2023-07-13T02:03:48;101153.41;;;20.36;59.91
30516;BME280;17297;54.022;10.760;2023-07-13T02:06:14;101153.63;;;20.34;59.90
30516;BME280;17297;54.022;10.760;2023-07-13T02:08:40;101157.44;;;20.33;59.79
30516;BME280;17297;54.022;10.760;2023-07-13T02:11:06;101153.28;;;20.30;60.26
30516;BME280;17297;54.022;10.760;2023-07-13T02:13:32;101152.72;;;20.28;60.01
30516;BME280;17297;54.022;10.760;2023-07-13T02:15:57;101153.78;;;20.27;60.15
30516;BME280;17297;54.022;10.760;2023-07-13T02:18:22;101148.81;;;20.24;59.74
30516;BME280;17297;54.022;10.760;2023-07-13T02:20:48;101154.56;;;20.23;59.95
30516;BME280;17297;54.022;10.760;2023-07-13T02:23:13;101154.78;;;20.21;59.98
30516;BME280;17297;54.022;10.760;2023-07-13T02:25:38;101156.34;;;20.17;59.84
30516;BME280;17297;54.022;10.760;2023-07-13T02:28:04;101154.72;;;20.16;60.16
30516;BME280;17297;54.022;10.760;2023-07-13T02:30:30;101148.66;;;20.14;60.14
30516;BME280;17297;54.022;10.760;2023-07-13T02:32:56;101148.91;;;20.13;60.16
30516;BME280;17297;54.022;10.760;2023-07-13T02:35:22;101143.47;;;20.13;60.16
30516;BME280;17297;54.022;10.760;2023-07-13T02:37:48;101144.78;;;20.10;60.27
30516;BME280;17297;54.022;10.760;2023-07-13T02:40:13;101140.38;;;20.09;59.82
30516;BME280;17297;54.022;10.760;2023-07-13T02:42:39;101141.72;;;20.06;60.11
30516;BME280;17297;54.022;10.760;2023-07-13T02:45:05;101143.84;;;20.04;60.13
30516;BME280;17297;54.022;10.760;2023-07-13T02:47:32;101144.94;;;20.03;60.28
30516;BME280;17297;54.022;10.760;2023-07-13T02:49:57;101147.91;;;20.02;59.96
30516;BME280;17297;54.022;10.760;2023-07-13T02:52:22;101151.72;;;20.01;59.92
30516;BME280;17297;54.022;10.760;2023-07-13T02:54:48;101146.47;;;19.99;59.88
30516;BME280;17297;54.022;10.760;2023-07-13T02:57:14;101143.19;;;19.97;60.13
30516;BME280;17297;54.022;10.760;2023-07-13T02:59:39;101148.88;;;19.96;60.31
30516;BME280;17297;54.022;10.760;2023-07-13T03:02:05;101140.69;;;19.96;60.26
30516;BME280;17297;54.022;10.760;2023-07-13T03:04:30;101147.22;;;19.95;60.17
30516;BME280;17297;54.022;10.760;2023-07-13T03:06:55;101144.50;;;19.95;60.03
30516;BME280;17297;54.022;10.760;2023-07-13T03:09:25;101148.31;;;19.94;60.14
30516;BME280;17297;54.022;10.760;2023-07-13T03:11:53;101146.63;;;19.93;60.45
30516;BME280;17297;54.022;10.760;2023-07-13T03:14:25;101139.28;;;19.93;60.26
30516;BME280;17297;54.022;10.760;2023-07-13T03:16:51;101147.22;;;19.95;60.34
30516;BME280;17297;54.022;10.760;2023-07-13T03:19:18;101146.41;;;19.94;60.19
30516;BME280;17297;54.022;10.760;2023-07-13T03:21:48;101149.13;;;19.94;60.36
30516;BME280;17297;54.022;10.760;2023-07-13T03:24:13;101152.44;;;19.96;60.23
30516;BME280;17297;54.022;10.760;2023-07-13T03:26:38;101142.59;;;19.95;60.50
30516;BME280;17297;54.022;10.760;2023-07-13T03:29:05;101148.88;;;19.96;60.33
30516;BME280;17297;54.022;10.760;2023-07-13T03:31:34;101140.69;;;19.96;60.45
30516;BME280;17297;54.022;10.760;2023-07-13T03:33:59;101145.06;;;19.97;60.34
30516;BME280;17297;54.022;10.760;2023-07-13T03:36:30;101142.94;;;19.99;60.21
30516;BME280;17297;54.022;10.760;2023-07-13T03:39:01;101141.03;;;19.99;60.61
30516;BME280;17297;54.022;10.760;2023-07-13T03:41:44;101149.81;;;20.01;60.33
30516;BME280;17297;54.022;10.760;2023-07-13T03:44:11;101145.16;;;20.02;60.65
30516;BME280;17297;54.022;10.760;2023-07-13T03:46:36;101153.69;;;20.05;60.52
30516;BME280;17297;54.022;10.760;2023-07-13T03:49:04;101137.91;;;20.07;60.64
30516;BME280;17297;54.022;10.760;2023-07-13T03:51:30;101139.06;;;20.12;60.85
30516;BME280;17297;54.022;10.760;2023-07-13T03:53:55;101145.69;;;20.16;60.81
30516;BME280;17297;54.022;10.760;2023-07-13T03:56:21;101147.06;;;20.18;60.69
30516;BME280;17297;54.022;10.760;2023-07-13T03:58:49;101148.00;;;20.24;60.84
30516;BME280;17297;54.022;10.760;2023-07-13T04:01:20;101148.31;;;20.27;60.72
30516;BME280;17297;54.022;10.760;2023-07-13T04:03:46;101149.50;;;20.32;60.88
30516;BME280;17297;54.022;10.760;2023-07-13T04:06:21;101150.06;;;20.34;60.61
30516;BME280;17297;54.022;10.760;2023-07-13T04:08:56;101156.13;;;20.36;60.50
30516;BME280;17297;54.022;10.760;2023-07-13T04:11:24;101156.72;;;20.38;60.62
30516;BME280;17297;54.022;10.760;2023-07-13T04:13:49;101156.44;;;20.39;60.73
30516;BME280;17297;54.022;10.760;2023-07-13T04:16:16;101159.78;;;20.41;61.02
30516;BME280;17297;54.022;10.760;2023-07-13T04:18:43;101157.03;;;20.41;60.96
30516;BME280;17297;54.022;10.760;2023-07-13T04:21:09;101169.38;;;20.44;60.94
30516;BME280;17297;54.022;10.760;2023-07-13T04:23:35;101152.13;;;20.43;60.94
30516;BME280;17297;54.022;10.760;2023-07-13T04:26:00;101157.09;;;20.46;61.16
30516;BME280;17297;54.022;10.760;2023-07-13T04:28:26;101162.06;;;20.49;61.06
30516;BME280;17297;54.022;10.760;2023-07-13T04:30:52;101158.28;;;20.50;61.15
30516;BME280;17297;54.022;10.760;2023-07-13T04:33:17;101159.72;;;20.53;61.17
30516;BME280;17297;54.022;10.760;2023-07-13T04:35:46;101154.00;;;20.55;61.35
30516;BME280;17297;54.022;10.760;2023-07-13T04:40:44;101156.56;;;20.61;60.97
30516;BME280;17297;54.022;10.760;2023-07-13T04:43:09;101154.41;;;20.63;61.31
30516;BME280;17297;54.022;10.760;2023-07-13T04:45:35;101162.09;;;20.66;61.01
30516;BME280;17297;54.022;10.760;2023-07-13T04:48:00;101159.94;;;20.68;61.32
30516;BME280;17297;54.022;10.760;2023-07-13T04:50:25;101155.88;;;20.71;60.92
30516;BME280;17297;54.022;10.760;2023-07-13T04:52:51;101154.56;;;20.73;60.88
30516;BME280;17297;54.022;10.760;2023-07-13T04:55:17;101161.44;;;20.76;61.14
30516;BME280;17297;54.022;10.760;2023-07-13T04:57:43;101162.84;;;20.79;61.15
30516;BME280;17297;54.022;10.760;2023-07-13T05:00:08;101156.88;;;20.82;61.16
30516;BME280;17297;54.022;10.760;2023-07-13T05:02:34;101161.84;;;20.85;61.10
30516;BME280;17297;54.022;10.760;2023-07-13T05:05:00;101156.94;;;20.87;61.25
30516;BME280;17297;54.022;10.760;2023-07-13T05:07:26;101167.63;;;20.88;61.13
30516;BME280;17297;54.022;10.760;2023-07-13T05:09:52;101156.69;;;20.88;61.03
30516;BME280;17297;54.022;10.760;2023-07-13T05:12:17;101152.88;;;20.89;60.97
30516;BME280;17297;54.022;10.760;2023-07-13T05:14:43;101152.88;;;20.89;60.67
30516;BME280;17297;54.022;10.760;2023-07-13T05:17:08;101156.78;;;20.93;60.93
30516;BME280;17297;54.022;10.760;2023-07-13T05:19:34;101156.25;;;20.96;60.79
30516;BME280;17297;54.022;10.760;2023-07-13T05:22:00;101160.69;;;21.03;60.93
30516;BME280;17297;54.022;10.760;2023-07-13T05:24:25;101163.28;;;21.09;60.81
30516;BME280;17297;54.022;10.760;2023-07-13T05:26:50;101156.78;;;21.15;60.73
30516;BME280;17297;54.022;10.760;2023-07-13T05:29:16;101158.56;;;21.27;60.52
30516;BME280;17297;54.022;10.760;2023-07-13T05:31:41;101158.53;;;21.65;60.57
30516;BME280;17297;54.022;10.760;2023-07-13T05:34:06;101153.41;;;22.01;60.11
30516;BME280;17297;54.022;10.760;2023-07-13T05:36:32;101155.63;;;22.31;60.12
30516;BME280;17297;54.022;10.760;2023-07-13T05:38:57;101163.38;;;22.82;59.62
30516;BME280;17297;54.022;10.760;2023-07-13T05:41:23;101162.66;;;23.55;59.38
30516;BME280;17297;54.022;10.760;2023-07-13T05:43:48;101156.50;;;24.36;58.76
30516;BME280;17297;54.022;10.760;2023-07-13T05:46:13;101165.75;;;25.17;57.49
30516;BME280;17297;54.022;10.760;2023-07-13T05:48:39;101160.47;;;25.90;56.52
30516;BME280;17297;54.022;10.760;2023-07-13T05:51:04;101177.00;;;26.30;54.83
30516;BME280;17297;54.022;10.760;2023-07-13T05:53:29;101180.81;;;26.34;54.29
30516;BME280;17297;54.022;10.760;2023-07-13T05:55:55;101181.53;;;26.15;53.31
30516;BME280;17297;54.022;10.760;2023-07-13T05:58:21;101179.75;;;25.90;53.18
30516;BME280;17297;54.022;10.760;2023-07-13T06:00:47;101185.09;;;25.71;53.07
30516;BME280;17297;54.022;10.760;2023-07-13T06:03:13;101183.47;;;25.65;53.39
30516;BME280;17297;54.022;10.760;2023-07-13T06:05:38;101176.13;;;25.45;53.45
30516;BME280;17297;54.022;10.760;2023-07-13T06:08:05;101175.66;;;25.23;53.43
30516;BME280;17297;54.022;10.760;2023-07-13T06:10:34;101174.31;;;25.00;53.70
30516;BME280;17297;54.022;10.760;2023-07-13T06:13:00;101176.59;;;24.77;53.56
30516;BME280;17297;54.022;10.760;2023-07-13T06:15:25;101176.59;;;24.57;53.44
30516;BME280;17297;54.022;10.760;2023-07-13T06:17:50;101178.47;;;24.36;53.80
30516;BME280;17297;54.022;10.760;2023-07-13T06:20:16;101171.88;;;24.16;54.14
30516;BME280;17297;54.022;10.760;2023-07-13T06:22:41;101176.53;;;24.01;54.22
30516;BME280;17297;54.022;10.760;2023-07-13T06:25:07;101172.38;;;23.83;54.31
30516;BME280;17297;54.022;10.760;2023-07-13T06:27:32;101172.91;;;23.69;54.30
30516;BME280;17297;54.022;10.760;2023-07-13T06:29:58;101177.22;;;23.60;54.38
30516;BME280;17297;54.022;10.760;2023-07-13T06:32:23;101182.72;;;23.55;54.82
30516;BME280;17297;54.022;10.760;2023-07-13T06:34:48;101175.56;;;23.49;55.13
30516;BME280;17297;54.022;10.760;2023-07-13T06:37:14;101177.19;;;23.45;55.16
30516;BME280;17297;54.022;10.760;2023-07-13T06:39:39;101184.88;;;23.43;55.13
30516;BME280;17297;54.022;10.760;2023-07-13T06:42:05;101191.44;;;23.42;55.18
30516;BME280;17297;54.022;10.760;2023-07-13T06:44:31;101192.25;;;23.42;55.34
30516;BME280;17297;54.022;10.760;2023-07-13T06:46:56;101197.22;;;23.40;55.51
30516;BME280;17297;54.022;10.760;2023-07-13T06:49:21;101191.69;;;23.35;55.72
30516;BME280;17297;54.022;10.760;2023-07-13T06:51:47;101198.00;;;23.31;55.57
30516;BME280;17297;54.022;10.760;2023-07-13T06:54:13;101205.09;;;23.26;55.75
30516;BME280;17297;54.022;10.760;2023-07-13T06:56:39;101207.00;;;23.21;56.14
30516;BME280;17297;54.022;10.760;2023-07-13T06:59:04;101201.72;;;23.14;55.95
30516;BME280;17297;54.022;10.760;2023-07-13T07:01:30;101211.03;;;23.08;56.12
30516;BME280;17297;54.022;10.760;2023-07-13T07:03:55;101200.28;;;23.01;56.08
30516;BME280;17297;54.022;10.760;2023-07-13T07:06:22;101200.78;;;22.93;56.28
30516;BME280;17297;54.022;10.760;2023-07-13T07:08:51;101194.13;;;22.84;56.35
30516;BME280;17297;54.022;10.760;2023-07-13T07:11:23;101205.34;;;22.77;56.48
30516;BME280;17297;54.022;10.760;2023-07-13T07:13:49;101197.31;;;22.71;56.61
30516;BME280;17297;54.022;10.760;2023-07-13T07:16:14;101197.53;;;22.64;56.55
30516;BME280;17297;54.022;10.760;2023-07-13T07:18:40;101202.72;;;22.60;56.94
30516;BME280;17297;54.022;10.760;2023-07-13T07:21:05;101205.16;;;22.57;57.01
30516;BME280;17297;54.022;10.760;2023-07-13T07:23:30;101199.97;;;22.55;57.25
30516;BME280;17297;54.022;10.760;2023-07-13T07:25:56;101202.69;;;22.55;57.48
30516;BME280;17297;54.022;10.760;2023-07-13T07:28:21;101203.53;;;22.56;57.09
30516;BME280;17297;54.022;10.760;2023-07-13T07:30:48;101203.53;;;22.56;57.25
30516;BME280;17297;54.022;10.760;2023-07-13T07:33:14;101206.56;;;22.59;57.51
30516;BME280;17297;54.022;10.760;2023-07-13T07:35:39;101203.00;;;22.64;57.44
30516;BME280;17297;54.022;10.760;2023-07-13T07:38:05;101209.91;;;22.67;57.68
30516;BME280;17297;54.022;10.760;2023-07-13T07:40:30;101209.13;;;22.71;57.54
30516;BME280;17297;54.022;10.760;2023-07-13T07:42:56;101215.78;;;22.80;57.58
30516;BME280;17297;54.022;10.760;2023-07-13T07:45:22;101212.28;;;22.90;57.52
30516;BME280;17297;54.022;10.760;2023-07-13T07:47:47;101209.34;;;22.97;57.29
30516;BME280;17297;54.022;10.760;2023-07-13T07:50:13;101203.03;;;23.01;57.21
30516;BME280;17297;54.022;10.760;2023-07-13T07:52:38;101208.53;;;23.01;57.04
30516;BME280;17297;54.022;10.760;2023-07-13T07:55:05;101212.94;;;23.02;56.72
30516;BME280;17297;54.022;10.760;2023-07-13T07:57:31;101211.53;;;23.00;56.69
30516;BME280;17297;54.022;10.760;2023-07-13T07:59:56;101207.41;;;22.97;56.73
30516;BME280;17297;54.022;10.760;2023-07-13T08:02:22;101207.66;;;22.96;56.39
30516;BME280;17297;54.022;10.760;2023-07-13T08:04:47;101206.84;;;22.95;56.62
30516;BME280;17297;54.022;10.760;2023-07-13T08:07:12;101209.84;;;22.94;56.53
30516;BME280;17297;54.022;10.760;2023-07-13T08:09:38;101211.50;;;22.95;56.62
30516;BME280;17297;54.022;10.760;2023-07-13T08:12:03;101209.56;;;22.95;56.39
30516;BME280;17297;54.022;10.760;2023-07-13T08:14:29;101213.19;;;23.01;56.30
30516;BME280;17297;54.022;10.760;2023-07-13T08:16:54;101220.88;;;23.04;56.22
30516;BME280;17297;54.022;10.760;2023-07-13T08:19:20;101212.94;;;23.08;56.32
30516;BME280;17297;54.022;10.760;2023-07-13T08:21:45;101216.31;;;23.15;55.74
30516;BME280;17297;54.022;10.760;2023-07-13T08:24:13;101217.13;;;23.20;55.71
30516;BME280;17297;54.022;10.760;2023-07-13T08:26:38;101222.66;;;23.25;55.93
30516;BME280;17297;54.022;10.760;2023-07-13T08:29:04;101208.69;;;23.32;55.63
30516;BME280;17297;54.022;10.760;2023-07-13T08:31:29;101220.25;;;23.39;55.84
30516;BME280;17297;54.022;10.760;2023-07-13T08:33:54;101209.59;;;23.43;55.31
30516;BME280;17297;54.022;10.760;2023-07-13T08:36:20;101206.59;;;23.49;55.06
30516;BME280;17297;54.022;10.760;2023-07-13T08:38:45;101205.78;;;23.54;55.00
30516;BME280;17297;54.022;10.760;2023-07-13T08:41:13;101212.69;;;23.62;54.80
30516;BME280;17297;54.022;10.760;2023-07-13T08:43:41;101209.69;;;23.68;54.63
30516;BME280;17297;54.022;10.760;2023-07-13T08:46:15;101203.13;;;23.74;54.70
30516;BME280;17297;54.022;10.760;2023-07-13T08:48:52;101205.34;;;23.83;54.28
30516;BME280;17297;54.022;10.760;2023-07-13T08:51:43;101212.50;;;23.89;54.58
30516;BME280;17297;54.022;10.760;2023-07-13T08:54:18;101208.66;;;23.95;54.35
30516;BME280;17297;54.022;10.760;2023-07-13T08:56:46;101207.59;;;24.01;54.26
30516;BME280;17297;54.022;10.760;2023-07-13T08:59:16;101202.66;;;24.03;53.98
30516;BME280;17297;54.022;10.760;2023-07-13T09:04:44;101199.63;;;24.10;53.39
30516;BME280;17297;54.022;10.760;2023-07-13T09:07:33;101196.31;;;24.08;53.46
30516;BME280;17297;54.022;10.760;2023-07-13T09:10:11;101210.09;;;24.03;53.18
30516;BME280;17297;54.022;10.760;2023-07-13T09:13:07;101204.31;;;23.99;53.53
30516;BME280;17297;54.022;10.760;2023-07-13T09:15:39;101211.97;;;23.97;53.12
30516;BME280;17297;54.022;10.760;2023-07-13T09:18:13;101210.63;;;24.00;53.29
30516;BME280;17297;54.022;10.760;2023-07-13T09:20:49;101211.72;;;24.04;53.46
30516;BME280;17297;54.022;10.760;2023-07-13T09:23:20;101196.91;;;24.10;53.52
30516;BME280;17297;54.022;10.760;2023-07-13T09:25:53;101203.22;;;24.15;52.98
30516;BME280;17297;54.022;10.760;2023-07-13T09:28:29;101207.09;;;24.25;53.28
30516;BME280;17297;54.022;10.760;2023-07-13T09:31:04;101206.00;;;24.31;53.77
30516;BME280;17297;54.022;10.760;2023-07-13T09:33:31;101210.13;;;24.33;52.90
30516;BME280;17297;54.022;10.760;2023-07-13T09:35:57;101202.41;;;24.35;53.27
30516;BME280;17297;54.022;10.760;2023-07-13T09:38:25;101211.22;;;24.37;53.38
30516;BME280;17297;54.022;10.760;2023-07-13T09:43:36;101213.19;;;24.52;52.81
30516;BME280;17297;54.022;10.760;2023-07-13T09:46:01;101210.16;;;24.54;52.68
30516;BME280;17297;54.022;10.760;2023-07-13T09:48:34;101205.47;;;24.54;52.05
30516;BME280;17297;54.022;10.760;2023-07-13T09:51:07;101208.50;;;24.53;52.35
30516;BME280;17297;54.022;10.760;2023-07-13T09:53:37;101203.84;;;24.58;52.19
30516;BME280;17297;54.022;10.760;2023-07-13T09:56:03;101201.63;;;24.60;52.18
30516;BME280;17297;54.022;10.760;2023-07-13T09:58:30;101191.16;;;24.62;52.17
30516;BME280;17297;54.022;10.760;2023-07-13T10:01:02;101189.78;;;24.65;51.99
30516;BME280;17297;54.022;10.760;2023-07-13T10:03:30;101201.88;;;24.69;51.67
30516;BME280;17297;54.022;10.760;2023-07-13T10:06:19;101200.22;;;24.73;52.30
30516;BME280;17297;54.022;10.760;2023-07-13T10:08:48;101201.03;;;24.79;51.97
30516;BME280;17297;54.022;10.760;2023-07-13T10:11:22;101198.03;;;24.80;51.79
30516;BME280;17297;54.022;10.760;2023-07-13T10:14:29;101191.16;;;24.83;51.69
30516;BME280;17297;54.022;10.760;2023-07-13T10:16:58;101185.91;;;24.81;51.94
30516;BME280;17297;54.022;10.760;2023-07-13T10:19:29;101180.16;;;24.83;51.87
30516;BME280;17297;54.022;10.760;2023-07-13T10:24:45;101188.13;;;24.89;51.73
30516;BME280;17297;54.022;10.760;2023-07-13T10:27:22;101187.81;;;24.91;51.71
30516;BME280;17297;54.022;10.760;2023-07-13T10:29:55;101183.41;;;24.95;51.81
30516;BME280;17297;54.022;10.760;2023-07-13T10:32:24;101188.34;;;24.98;51.54
30516;BME280;17297;54.022;10.760;2023-07-13T10:34:50;101175.16;;;25.00;51.16
30516;BME280;17297;54.022;10.760;2023-07-13T10:37:26;101177.34;;;25.03;51.50
30516;BME280;17297;54.022;10.760;2023-07-13T10:39:54;101175.66;;;25.07;51.18
30516;BME280;17297;54.022;10.760;2023-07-13T10:42:33;101178.72;;;25.11;50.84
30516;BME280;17297;54.022;10.760;2023-07-13T10:45:00;101178.19;;;25.14;50.70
30516;BME280;17297;54.022;10.760;2023-07-13T10:47:26;101179.25;;;25.18;50.68
30516;BME280;17297;54.022;10.760;2023-07-13T10:49:56;101182.53;;;25.20;50.31
30516;BME280;17297;54.022;10.760;2023-07-13T10:52:43;101184.72;;;25.23;50.41
30516;BME280;17297;54.022;10.760;2023-07-13T10:58:00;101192.72;;;25.30;50.00
30516;BME280;17297;54.022;10.760;2023-07-13T11:00:25;101197.66;;;25.33;49.51
30516;BME280;17297;54.022;10.760;2023-07-13T11:03:02;101196.00;;;25.32;49.27
30516;BME280;17297;54.022;10.760;2023-07-13T11:05:32;101193.25;;;25.32;48.80
30516;BME280;17297;54.022;10.760;2023-07-13T11:08:19;101204.00;;;25.28;48.75
30516;BME280;17297;54.022;10.760;2023-07-13T11:10:54;101209.50;;;25.23;48.64
30516;BME280;17297;54.022;10.760;2023-07-13T11:13:38;101221.63;;;25.12;48.69
30516;BME280;17297;54.022;10.760;2023-07-13T11:18:53;101254.69;;;24.81;48.31
30516;BME280;17297;54.022;10.760;2023-07-13T11:21:33;101263.22;;;24.59;48.71
30516;BME280;17297;54.022;10.760;2023-07-13T11:24:16;101270.59;;;24.38;49.37
30516;BME280;17297;54.022;10.760;2023-07-13T11:31:59;101267.97;;;23.81;49.95
30516;BME280;17297;54.022;10.760;2023-07-13T11:34:30;101279.13;;;23.64;49.89
30516;BME280;17297;54.022;10.760;2023-07-13T11:36:58;101265.63;;;23.52;50.22
30516;BME280;17297;54.022;10.760;2023-07-13T11:39:39;101271.88;;;23.42;50.70
30516;BME280;17297;54.022;10.760;2023-07-13T11:42:10;101274.03;;;23.35;50.92
30516;BME280;17297;54.022;10.760;2023-07-13T11:44:42;101277.84;;;23.29;50.93
30516;BME280;17297;54.022;10.760;2023-07-13T11:47:17;101279.47;;;23.25;51.63
30516;BME280;17297;54.022;10.760;2023-07-13T11:49:48;101269.56;;;23.24;51.86
30516;BME280;17297;54.022;10.760;2023-07-13T11:52:17;101276.44;;;23.21;51.87
30516;BME280;17297;54.022;10.760;2023-07-13T11:54:49;101282.69;;;23.17;52.37
30516;BME280;17297;54.022;10.760;2023-07-13T11:57:28;101281.31;;;23.14;52.59
30516;BME280;17297;54.022;10.760;2023-07-13T11:59:56;101281.59;;;23.13;52.86
30516;BME280;17297;54.022;10.760;2023-07-13T12:02:28;101285.69;;;23.10;53.17
30516;BME280;17297;54.022;10.760;2023-07-13T12:04:55;101287.59;;;23.10;53.01
30516;BME280;17297;54.022;10.760;2023-07-13T12:07:22;101286.78;;;23.09;53.52
30516;BME280;17297;54.022;10.760;2023-07-13T12:09:47;101295.00;;;23.09;53.44
30516;BME280;17297;54.022;10.760;2023-07-13T12:12:20;101296.66;;;23.10;53.75
30516;BME280;17297;54.022;10.760;2023-07-13T12:14:46;101297.22;;;23.12;53.87
30516;BME280;17297;54.022;10.760;2023-07-13T12:17:19;101293.97;;;23.20;53.92
30516;BME280;17297;54.022;10.760;2023-07-13T12:19:45;101297.06;;;23.29;53.98
30516;BME280;17297;54.022;10.760;2023-07-13T12:22:12;101294.91;;;23.36;53.93
30516;BME280;17297;54.022;10.760;2023-07-13T12:24:40;101285.59;;;23.42;53.55
30516;BME280;17297;54.022;10.760;2023-07-13T12:27:27;101296.09;;;23.50;54.02
30516;BME280;17297;54.022;10.760;2023-07-13T12:30:06;101285.44;;;23.59;53.81
30516;BME280;17297;54.022;10.760;2023-07-13T12:32:42;101288.50;;;23.68;53.51
30516;BME280;17297;54.022;10.760;2023-07-13T12:35:15;101281.41;;;23.72;53.19
30516;BME280;17297;54.022;10.760;2023-07-13T12:37:47;101283.06;;;23.78;53.14
30516;BME280;17297;54.022;10.760;2023-07-13T12:40:16;101283.34;;;23.82;52.83
30516;BME280;17297;54.022;10.760;2023-07-13T12:42:46;101287.50;;;23.84;52.76
30516;BME280;17297;54.022;10.760;2023-07-13T12:45:23;101292.47;;;23.87;52.46
30516;BME280;17297;54.022;10.760;2023-07-13T12:47:53;101293.28;;;23.88;52.47
30516;BME280;17297;54.022;10.760;2023-07-13T12:50:21;101304.56;;;23.91;52.67
30516;BME280;17297;54.022;10.760;2023-07-13T12:52:53;101305.13;;;23.93;52.40
30516;BME280;17297;54.022;10.760;2023-07-13T12:55:20;101305.41;;;23.97;52.81
30516;BME280;17297;54.022;10.760;2023-07-13T12:57:55;101307.31;;;24.02;53.03
30516;BME280;17297;54.022;10.760;2023-07-13T13:02:57;101311.47;;;24.04;52.59
30516;BME280;17297;54.022;10.760;2023-07-13T13:05:25;101316.97;;;24.04;52.88
30516;BME280;17297;54.022;10.760;2023-07-13T13:07:51;101307.91;;;24.04;52.72
30516;BME280;17297;54.022;10.760;2023-07-13T13:10:16;101314.75;;;24.01;52.37
30516;BME280;17297;54.022;10.760;2023-07-13T13:12:42;101314.22;;;23.99;51.94